sensor_id;sensor_type;location;lat;lon;timestamp;P1;durP1;ratioP1;P2;durP2;ratioP2
42488;SDS011;28118;52.388;9.452;2022-11-21T00:00:25;25.55;;;14.02;;
42488;SDS011;28118;52.388;9.452;2022-11-21T00:02:53;16.77;;;13.70;;
42488;SDS011;28118;52.388;9.452;2022-11-21T00:05:22;16.17;;;13.77;;
42488;SDS011;28118;52.388;9.452;2022-11-21T00:07:48;18.30;;;12.90;;
42488;SDS011;28118;52.388;9.452;2022-11-21T00:10:15;19.23;;;13.90;;
42488;SDS011;28118;52.388;9.452;2022-11-21T00:12:42;19.38;;;14.25;;
42488;SDS011;28118;52.388;9.452;2022-11-21T00:15:09;15.73;;;12.80;;
42488;SDS011;28118;52.388;9.452;2022-11-21T00:17:35;22.42;;;16.48;;
42488;SDS011;28118;52.388;9.452;2022-11-21T00:20:02;16.67;;;13.30;;
42488;SDS011;28118;52.388;9.452;2022-11-21T00:22:30;18.52;;;14.45;;
42488;SDS011;28118;52.388;9.452;2022-11-21T00:24:57;24.77;;;16.20;;
42488;SDS011;28118;52.388;9.452;2022-11-21T00:27:24;16.00;;;13.35;;
42488;SDS011;28118;52.388;9.452;2022-11-21T00:29:50;17.75;;;14.02;;
42488;SDS011;28118;52.388;9.452;2022-11-21T00:32:17;14.15;;;12.70;;
42488;SDS011;28118;52.388;9.452;2022-11-21T00:34:44;20.38;;;14.82;;
42488;SDS011;28118;52.388;9.452;2022-11-21T00:37:10;20.77;;;15.70;;
42488;SDS011;28118;52.388;9.452;2022-11-21T00:39:37;18.05;;;14.25;;
42488;SDS011;28118;52.388;9.452;2022-11-21T00:42:03;20.10;;;15.13;;
42488;SDS011;28118;52.388;9.452;2022-11-21T00:44:30;20.58;;;15.93;;
42488;SDS011;28118;52.388;9.452;2022-11-21T00:46:57;12.50;;;10.60;;
42488;SDS011;28118;52.388;9.452;2022-11-21T00:49:23;17.92;;;14.18;;
42488;SDS011;28118;52.388;9.452;2022-11-21T00:51:50;18.05;;;12.02;;
42488;SDS011;28118;52.388;9.452;2022-11-21T00:54:17;16.48;;;12.75;;
42488;SDS011;28118;52.388;9.452;2022-11-21T00:56:43;18.02;;;14.55;;
42488;SDS011;28118;52.388;9.452;2022-11-21T00:59:10;20.30;;;13.77;;
42488;SDS011;28118;52.388;9.452;2022-11-21T01:01:36;21.40;;;14.95;;
42488;SDS011;28118;52.388;9.452;2022-11-21T01:04:03;16.40;;;14.57;;
42488;SDS011;28118;52.388;9.452;2022-11-21T01:06:30;20.15;;;11.70;;
42488;SDS011;28118;52.388;9.452;2022-11-21T01:08:57;15.75;;;13.18;;
42488;SDS011;28118;52.388;9.452;2022-11-21T01:11:23;19.05;;;13.75;;
42488;SDS011;28118;52.388;9.452;2022-11-21T01:13:51;17.33;;;10.95;;
42488;SDS011;28118;52.388;9.452;2022-11-21T01:16:19;19.90;;;15.10;;
42488;SDS011;28118;52.388;9.452;2022-11-21T01:18:49;19.77;;;14.52;;
42488;SDS011;28118;52.388;9.452;2022-11-21T01:21:17;17.23;;;13.07;;
42488;SDS011;28118;52.388;9.452;2022-11-21T01:23:46;18.60;;;12.90;;
42488;SDS011;28118;52.388;9.452;2022-11-21T01:26:14;15.40;;;13.80;;
42488;SDS011;28118;52.388;9.452;2022-11-21T01:28:43;17.50;;;14.38;;
42488;SDS011;28118;52.388;9.452;2022-11-21T01:33:39;15.93;;;11.50;;
42488;SDS011;28118;52.388;9.452;2022-11-21T01:38:47;21.42;;;14.75;;
42488;SDS011;28118;52.388;9.452;2022-11-21T01:41:19;17.55;;;14.43;;
42488;SDS011;28118;52.388;9.452;2022-11-21T01:43:48;15.75;;;13.40;;
42488;SDS011;28118;52.388;9.452;2022-11-21T01:46:21;18.48;;;15.30;;
42488;SDS011;28118;52.388;9.452;2022-11-21T01:48:53;19.23;;;13.82;;
42488;SDS011;28118;52.388;9.452;2022-11-21T01:54:15;20.60;;;15.90;;
42488;SDS011;28118;52.388;9.452;2022-11-21T01:56:47;14.40;;;12.07;;
42488;SDS011;28118;52.388;9.452;2022-11-21T01:59:28;20.20;;;14.10;;
42488;SDS011;28118;52.388;9.452;2022-11-21T02:02:07;21.15;;;16.05;;
42488;SDS011;28118;52.388;9.452;2022-11-21T02:04:36;16.40;;;13.95;;
42488;SDS011;28118;52.388;9.452;2022-11-21T02:07:06;20.63;;;14.60;;
42488;SDS011;28118;52.388;9.452;2022-11-21T02:09:35;16.75;;;13.02;;
42488;SDS011;28118;52.388;9.452;2022-11-21T02:12:27;18.60;;;14.65;;
42488;SDS011;28118;52.388;9.452;2022-11-21T02:14:55;17.90;;;12.55;;
42488;SDS011;28118;52.388;9.452;2022-11-21T02:17:24;14.70;;;12.35;;
42488;SDS011;28118;52.388;9.452;2022-11-21T02:22:25;16.10;;;14.48;;
42488;SDS011;28118;52.388;9.452;2022-11-21T02:25:06;23.27;;;16.85;;
42488;SDS011;28118;52.388;9.452;2022-11-21T02:27:37;19.42;;;14.07;;
42488;SDS011;28118;52.388;9.452;2022-11-21T02:30:04;20.30;;;15.63;;
42488;SDS011;28118;52.388;9.452;2022-11-21T02:32:37;16.63;;;13.85;;
42488;SDS011;28118;52.388;9.452;2022-11-21T02:35:06;25.92;;;19.58;;
42488;SDS011;28118;52.388;9.452;2022-11-21T02:37:34;19.52;;;14.35;;
42488;SDS011;28118;52.388;9.452;2022-11-21T02:40:04;19.13;;;17.30;;
42488;SDS011;28118;52.388;9.452;2022-11-21T02:42:39;24.88;;;18.73;;
42488;SDS011;28118;52.388;9.452;2022-11-21T02:45:20;18.75;;;15.40;;
42488;SDS011;28118;52.388;9.452;2022-11-21T02:47:52;21.48;;;17.63;;
42488;SDS011;28118;52.388;9.452;2022-11-21T02:50:29;19.33;;;17.38;;
42488;SDS011;28118;52.388;9.452;2022-11-21T02:52:57;21.10;;;15.82;;
42488;SDS011;28118;52.388;9.452;2022-11-21T02:55:24;19.63;;;16.75;;
42488;SDS011;28118;52.388;9.452;2022-11-21T02:57:52;19.83;;;17.77;;
42488;SDS011;28118;52.388;9.452;2022-11-21T03:00:19;25.25;;;18.70;;
42488;SDS011;28118;52.388;9.452;2022-11-21T03:02:46;16.27;;;14.48;;
42488;SDS011;28118;52.388;9.452;2022-11-21T03:05:14;17.65;;;15.85;;
42488;SDS011;28118;52.388;9.452;2022-11-21T03:07:44;16.63;;;14.93;;
42488;SDS011;28118;52.388;9.452;2022-11-21T03:10:35;24.27;;;17.98;;
42488;SDS011;28118;52.388;9.452;2022-11-21T03:13:26;23.25;;;16.75;;
42488;SDS011;28118;52.388;9.452;2022-11-21T03:16:17;23.25;;;17.58;;
42488;SDS011;28118;52.388;9.452;2022-11-21T03:18:44;19.08;;;15.05;;
42488;SDS011;28118;52.388;9.452;2022-11-21T03:21:11;16.20;;;14.60;;
42488;SDS011;28118;52.388;9.452;2022-11-21T03:23:37;18.55;;;16.48;;
42488;SDS011;28118;52.388;9.452;2022-11-21T03:26:08;17.45;;;15.25;;
42488;SDS011;28118;52.388;9.452;2022-11-21T03:28:34;26.75;;;19.58;;
42488;SDS011;28118;52.388;9.452;2022-11-21T03:31:01;27.50;;;19.33;;
42488;SDS011;28118;52.388;9.452;2022-11-21T03:33:27;19.63;;;17.60;;
42488;SDS011;28118;52.388;9.452;2022-11-21T03:35:54;22.20;;;16.50;;
42488;SDS011;28118;52.388;9.452;2022-11-21T03:38:21;26.63;;;19.13;;
42488;SDS011;28118;52.388;9.452;2022-11-21T03:40:47;26.42;;;19.13;;
42488;SDS011;28118;52.388;9.452;2022-11-21T03:43:14;18.48;;;15.80;;
42488;SDS011;28118;52.388;9.452;2022-11-21T03:45:40;26.45;;;16.30;;
42488;SDS011;28118;52.388;9.452;2022-11-21T03:48:07;21.42;;;16.08;;
42488;SDS011;28118;52.388;9.452;2022-11-21T03:50:34;20.40;;;18.35;;
42488;SDS011;28118;52.388;9.452;2022-11-21T03:53:00;16.50;;;14.93;;
42488;SDS011;28118;52.388;9.452;2022-11-21T03:55:27;20.63;;;17.52;;
42488;SDS011;28118;52.388;9.452;2022-11-21T03:57:54;22.65;;;18.90;;
42488;SDS011;28118;52.388;9.452;2022-11-21T04:00:20;28.80;;;24.52;;
42488;SDS011;28118;52.388;9.452;2022-11-21T04:02:47;45.97;;;25.30;;
42488;SDS011;28118;52.388;9.452;2022-11-21T04:05:14;28.90;;;20.95;;
42488;SDS011;28118;52.388;9.452;2022-11-21T04:07:40;24.73;;;19.25;;
42488;SDS011;28118;52.388;9.452;2022-11-21T04:10:07;25.02;;;19.95;;
42488;SDS011;28118;52.388;9.452;2022-11-21T04:12:34;24.20;;;17.77;;
42488;SDS011;28118;52.388;9.452;2022-11-21T04:15:01;27.85;;;20.65;;
42488;SDS011;28118;52.388;9.452;2022-11-21T04:17:27;27.58;;;21.73;;
42488;SDS011;28118;52.388;9.452;2022-11-21T04:19:54;24.30;;;18.40;;
42488;SDS011;28118;52.388;9.452;2022-11-21T04:22:21;21.88;;;19.58;;
42488;SDS011;28118;52.388;9.452;2022-11-21T04:24:47;22.52;;;19.95;;
42488;SDS011;28118;52.388;9.452;2022-11-21T04:27:14;24.58;;;19.10;;
42488;SDS011;28118;52.388;9.452;2022-11-21T04:29:40;27.33;;;18.60;;
42488;SDS011;28118;52.388;9.452;2022-11-21T04:32:07;18.02;;;16.20;;
42488;SDS011;28118;52.388;9.452;2022-11-21T04:34:34;20.92;;;16.92;;
42488;SDS011;28118;52.388;9.452;2022-11-21T04:37:00;20.88;;;15.50;;
42488;SDS011;28118;52.388;9.452;2022-11-21T04:39:31;23.88;;;18.45;;
42488;SDS011;28118;52.388;9.452;2022-11-21T04:41:58;21.10;;;14.98;;
42488;SDS011;28118;52.388;9.452;2022-11-21T04:44:24;19.95;;;16.98;;
42488;SDS011;28118;52.388;9.452;2022-11-21T04:46:51;22.52;;;18.23;;
42488;SDS011;28118;52.388;9.452;2022-11-21T04:49:18;28.38;;;18.85;;
42488;SDS011;28118;52.388;9.452;2022-11-21T04:51:45;19.50;;;17.13;;
42488;SDS011;28118;52.388;9.452;2022-11-21T04:54:11;24.77;;;16.73;;
42488;SDS011;28118;52.388;9.452;2022-11-21T04:56:38;18.20;;;15.13;;
42488;SDS011;28118;52.388;9.452;2022-11-21T04:59:04;29.38;;;17.55;;
42488;SDS011;28118;52.388;9.452;2022-11-21T05:01:31;24.73;;;19.33;;
42488;SDS011;28118;52.388;9.452;2022-11-21T05:03:58;21.15;;;17.42;;
42488;SDS011;28118;52.388;9.452;2022-11-21T05:06:24;20.92;;;17.25;;
42488;SDS011;28118;52.388;9.452;2022-11-21T05:08:51;18.20;;;14.77;;
42488;SDS011;28118;52.388;9.452;2022-11-21T05:11:19;19.90;;;16.33;;
42488;SDS011;28118;52.388;9.452;2022-11-21T05:14:04;25.98;;;18.05;;
42488;SDS011;28118;52.388;9.452;2022-11-21T05:16:31;20.02;;;16.00;;
42488;SDS011;28118;52.388;9.452;2022-11-21T05:18:58;22.15;;;13.93;;
42488;SDS011;28118;52.388;9.452;2022-11-21T05:21:25;17.27;;;15.73;;
42488;SDS011;28118;52.388;9.452;2022-11-21T05:23:51;29.13;;;18.17;;
42488;SDS011;28118;52.388;9.452;2022-11-21T05:26:18;17.50;;;15.10;;
42488;SDS011;28118;52.388;9.452;2022-11-21T05:28:44;22.80;;;17.83;;
42488;SDS011;28118;52.388;9.452;2022-11-21T05:31:13;27.73;;;19.55;;
42488;SDS011;28118;52.388;9.452;2022-11-21T05:33:40;18.10;;;15.20;;
42488;SDS011;28118;52.388;9.452;2022-11-21T05:36:06;27.33;;;24.17;;
42488;SDS011;28118;52.388;9.452;2022-11-21T05:38:33;19.00;;;17.02;;
42488;SDS011;28118;52.388;9.452;2022-11-21T05:40:59;22.92;;;17.00;;
42488;SDS011;28118;52.388;9.452;2022-11-21T05:43:26;18.65;;;14.75;;
42488;SDS011;28118;52.388;9.452;2022-11-21T05:46:14;23.17;;;16.88;;
42488;SDS011;28118;52.388;9.452;2022-11-21T05:48:42;20.75;;;16.83;;
42488;SDS011;28118;52.388;9.452;2022-11-21T05:51:10;24.90;;;20.52;;
42488;SDS011;28118;52.388;9.452;2022-11-21T05:53:37;21.80;;;17.83;;
42488;SDS011;28118;52.388;9.452;2022-11-21T05:56:05;24.23;;;17.95;;
42488;SDS011;28118;52.388;9.452;2022-11-21T05:58:33;25.38;;;17.30;;
42488;SDS011;28118;52.388;9.452;2022-11-21T06:01:01;23.15;;;17.13;;
42488;SDS011;28118;52.388;9.452;2022-11-21T06:03:29;32.17;;;19.60;;
42488;SDS011;28118;52.388;9.452;2022-11-21T06:08:30;24.23;;;21.60;;
42488;SDS011;28118;52.388;9.452;2022-11-21T06:11:02;24.08;;;16.05;;
42488;SDS011;28118;52.388;9.452;2022-11-21T06:13:29;24.85;;;15.50;;
42488;SDS011;28118;52.388;9.452;2022-11-21T06:16:00;19.73;;;16.88;;
42488;SDS011;28118;52.388;9.452;2022-11-21T06:18:32;15.65;;;14.05;;
42488;SDS011;28118;52.388;9.452;2022-11-21T06:21:04;20.05;;;17.13;;
42488;SDS011;28118;52.388;9.452;2022-11-21T06:23:37;20.98;;;18.23;;
42488;SDS011;28118;52.388;9.452;2022-11-21T06:26:04;18.55;;;16.17;;
42488;SDS011;28118;52.388;9.452;2022-11-21T06:28:36;24.02;;;16.83;;
42488;SDS011;28118;52.388;9.452;2022-11-21T06:31:28;22.10;;;16.27;;
42488;SDS011;28118;52.388;9.452;2022-11-21T06:34:19;18.75;;;16.80;;
42488;SDS011;28118;52.388;9.452;2022-11-21T06:37:10;23.95;;;16.23;;
42488;SDS011;28118;52.388;9.452;2022-11-21T06:40:01;24.63;;;15.93;;
42488;SDS011;28118;52.388;9.452;2022-11-21T06:42:28;23.48;;;16.42;;
42488;SDS011;28118;52.388;9.452;2022-11-21T06:44:57;18.42;;;16.13;;
42488;SDS011;28118;52.388;9.452;2022-11-21T06:47:23;19.52;;;17.35;;
42488;SDS011;28118;52.388;9.452;2022-11-21T06:49:50;18.13;;;14.35;;
42488;SDS011;28118;52.388;9.452;2022-11-21T06:52:16;22.60;;;17.52;;
42488;SDS011;28118;52.388;9.452;2022-11-21T06:54:43;18.50;;;15.98;;
42488;SDS011;28118;52.388;9.452;2022-11-21T06:57:10;23.50;;;15.43;;
42488;SDS011;28118;52.388;9.452;2022-11-21T06:59:36;16.05;;;14.35;;
42488;SDS011;28118;52.388;9.452;2022-11-21T07:02:03;28.10;;;18.20;;
42488;SDS011;28118;52.388;9.452;2022-11-21T07:04:29;21.23;;;15.32;;
42488;SDS011;28118;52.388;9.452;2022-11-21T07:06:56;16.42;;;13.88;;
42488;SDS011;28118;52.388;9.452;2022-11-21T07:09:22;18.38;;;16.48;;
42488;SDS011;28118;52.388;9.452;2022-11-21T07:11:59;27.13;;;17.25;;
42488;SDS011;28118;52.388;9.452;2022-11-21T07:14:46;20.00;;;14.65;;
42488;SDS011;28118;52.388;9.452;2022-11-21T07:17:13;22.70;;;17.52;;
42488;SDS011;28118;52.388;9.452;2022-11-21T07:19:40;20.73;;;16.92;;
42488;SDS011;28118;52.388;9.452;2022-11-21T07:22:07;22.02;;;19.77;;
42488;SDS011;28118;52.388;9.452;2022-11-21T07:24:33;22.35;;;20.02;;
42488;SDS011;28118;52.388;9.452;2022-11-21T07:27:00;25.65;;;19.10;;
42488;SDS011;28118;52.388;9.452;2022-11-21T07:29:27;27.25;;;24.33;;
42488;SDS011;28118;52.388;9.452;2022-11-21T07:31:54;25.70;;;18.60;;
42488;SDS011;28118;52.388;9.452;2022-11-21T07:34:21;33.08;;;21.67;;
42488;SDS011;28118;52.388;9.452;2022-11-21T07:36:47;24.05;;;21.45;;
42488;SDS011;28118;52.388;9.452;2022-11-21T07:39:14;29.92;;;24.88;;
42488;SDS011;28118;52.388;9.452;2022-11-21T07:41:41;27.20;;;22.70;;
42488;SDS011;28118;52.388;9.452;2022-11-21T07:44:08;23.33;;;19.35;;
42488;SDS011;28118;52.388;9.452;2022-11-21T07:46:34;24.98;;;19.42;;
42488;SDS011;28118;52.388;9.452;2022-11-21T07:49:01;21.65;;;19.30;;
42488;SDS011;28118;52.388;9.452;2022-11-21T07:51:29;26.52;;;20.98;;
42488;SDS011;28118;52.388;9.452;2022-11-21T07:53:55;27.92;;;20.38;;
42488;SDS011;28118;52.388;9.452;2022-11-21T07:56:22;18.08;;;15.00;;
42488;SDS011;28118;52.388;9.452;2022-11-21T07:58:51;20.98;;;18.48;;
42488;SDS011;28118;52.388;9.452;2022-11-21T08:01:18;25.45;;;18.13;;
42488;SDS011;28118;52.388;9.452;2022-11-21T08:03:45;23.73;;;17.13;;
42488;SDS011;28118;52.388;9.452;2022-11-21T08:06:11;24.58;;;16.33;;
42488;SDS011;28118;52.388;9.452;2022-11-21T08:08:38;23.33;;;18.65;;
42488;SDS011;28118;52.388;9.452;2022-11-21T08:11:06;21.73;;;18.42;;
42488;SDS011;28118;52.388;9.452;2022-11-21T08:13:33;19.23;;;15.38;;
42488;SDS011;28118;52.388;9.452;2022-11-21T08:16:01;22.20;;;19.50;;
42488;SDS011;28118;52.388;9.452;2022-11-21T08:18:29;17.02;;;15.27;;
42488;SDS011;28118;52.388;9.452;2022-11-21T08:20:56;22.30;;;18.17;;
42488;SDS011;28118;52.388;9.452;2022-11-21T08:23:25;22.35;;;19.33;;
42488;SDS011;28118;52.388;9.452;2022-11-21T08:25:51;17.98;;;15.85;;
42488;SDS011;28118;52.388;9.452;2022-11-21T08:28:18;19.67;;;17.52;;
42488;SDS011;28118;52.388;9.452;2022-11-21T08:30:44;19.42;;;16.75;;
42488;SDS011;28118;52.388;9.452;2022-11-21T08:33:11;29.17;;;21.25;;
42488;SDS011;28118;52.388;9.452;2022-11-21T08:35:38;22.23;;;14.90;;
42488;SDS011;28118;52.388;9.452;2022-11-21T08:38:05;23.20;;;19.10;;
42488;SDS011;28118;52.388;9.452;2022-11-21T08:40:31;19.17;;;16.13;;
42488;SDS011;28118;52.388;9.452;2022-11-21T08:42:59;21.65;;;17.98;;
42488;SDS011;28118;52.388;9.452;2022-11-21T08:45:34;32.10;;;21.67;;
42488;SDS011;28118;52.388;9.452;2022-11-21T08:48:01;21.00;;;18.10;;
42488;SDS011;28118;52.388;9.452;2022-11-21T08:50:28;22.88;;;19.60;;
42488;SDS011;28118;52.388;9.452;2022-11-21T08:52:59;19.73;;;17.52;;
42488;SDS011;28118;52.388;9.452;2022-11-21T08:55:27;27.92;;;16.38;;
42488;SDS011;28118;52.388;9.452;2022-11-21T08:57:54;20.50;;;17.05;;
42488;SDS011;28118;52.388;9.452;2022-11-21T09:00:21;24.98;;;19.95;;
42488;SDS011;28118;52.388;9.452;2022-11-21T09:02:48;20.80;;;18.75;;
42488;SDS011;28118;52.388;9.452;2022-11-21T09:05:14;21.25;;;17.75;;
42488;SDS011;28118;52.388;9.452;2022-11-21T09:07:41;26.92;;;19.50;;
42488;SDS011;28118;52.388;9.452;2022-11-21T09:10:08;18.10;;;14.77;;
42488;SDS011;28118;52.388;9.452;2022-11-21T09:12:35;19.25;;;17.13;;
42488;SDS011;28118;52.388;9.452;2022-11-21T09:15:01;24.17;;;20.10;;
42488;SDS011;28118;52.388;9.452;2022-11-21T09:17:46;26.13;;;17.27;;
42488;SDS011;28118;52.388;9.452;2022-11-21T09:20:29;20.08;;;17.77;;
42488;SDS011;28118;52.388;9.452;2022-11-21T09:22:57;26.83;;;19.20;;
42488;SDS011;28118;52.388;9.452;2022-11-21T09:25:29;19.02;;;16.05;;
42488;SDS011;28118;52.388;9.452;2022-11-21T09:27:59;25.63;;;17.75;;
42488;SDS011;28118;52.388;9.452;2022-11-21T09:30:29;26.27;;;21.50;;
42488;SDS011;28118;52.388;9.452;2022-11-21T09:33:04;21.90;;;17.08;;
42488;SDS011;28118;52.388;9.452;2022-11-21T09:35:32;29.58;;;19.80;;
42488;SDS011;28118;52.388;9.452;2022-11-21T09:37:58;20.05;;;17.85;;
42488;SDS011;28118;52.388;9.452;2022-11-21T09:40:25;21.17;;;19.00;;
42488;SDS011;28118;52.388;9.452;2022-11-21T09:42:57;25.58;;;20.75;;
42488;SDS011;28118;52.388;9.452;2022-11-21T09:45:48;19.02;;;15.25;;
42488;SDS011;28118;52.388;9.452;2022-11-21T09:48:26;23.35;;;18.88;;
42488;SDS011;28118;52.388;9.452;2022-11-21T09:50:59;18.35;;;16.30;;
42488;SDS011;28118;52.388;9.452;2022-11-21T09:53:52;27.00;;;20.65;;
42488;SDS011;28118;52.388;9.452;2022-11-21T09:56:24;21.63;;;18.55;;
42488;SDS011;28118;52.388;9.452;2022-11-21T09:59:06;21.52;;;18.20;;
42488;SDS011;28118;52.388;9.452;2022-11-21T10:01:46;22.52;;;18.88;;
42488;SDS011;28118;52.388;9.452;2022-11-21T10:04:13;22.73;;;18.42;;
42488;SDS011;28118;52.388;9.452;2022-11-21T10:06:50;26.98;;;20.23;;
42488;SDS011;28118;52.388;9.452;2022-11-21T10:12:13;20.42;;;18.35;;
42488;SDS011;28118;52.388;9.452;2022-11-21T10:23:31;20.88;;;18.67;;
42488;SDS011;28118;52.388;9.452;2022-11-21T10:26:37;18.05;;;15.80;;
42488;SDS011;28118;52.388;9.452;2022-11-21T10:29:09;15.77;;;14.07;;
42488;SDS011;28118;52.388;9.452;2022-11-21T10:31:54;19.63;;;17.00;;
42488;SDS011;28118;52.388;9.452;2022-11-21T10:34:30;20.13;;;12.45;;
42488;SDS011;28118;52.388;9.452;2022-11-21T10:37:02;19.15;;;16.02;;
42488;SDS011;28118;52.388;9.452;2022-11-21T10:39:45;18.80;;;16.98;;
42488;SDS011;28118;52.388;9.452;2022-11-21T10:42:17;20.88;;;15.75;;
42488;SDS011;28118;52.388;9.452;2022-11-21T10:45:10;17.27;;;14.18;;
42488;SDS011;28118;52.388;9.452;2022-11-21T10:47:42;19.05;;;14.45;;
42488;SDS011;28118;52.388;9.452;2022-11-21T10:53:09;17.65;;;12.02;;
42488;SDS011;28118;52.388;9.452;2022-11-21T10:56:03;15.18;;;12.07;;
42488;SDS011;28118;52.388;9.452;2022-11-21T10:58:40;17.07;;;14.70;;
42488;SDS011;28118;52.388;9.452;2022-11-21T11:01:18;17.25;;;14.05;;
42488;SDS011;28118;52.388;9.452;2022-11-21T11:06:53;17.00;;;13.13;;
42488;SDS011;28118;52.388;9.452;2022-11-21T11:09:23;15.35;;;12.70;;
42488;SDS011;28118;52.388;9.452;2022-11-21T11:14:51;18.60;;;12.95;;
42488;SDS011;28118;52.388;9.452;2022-11-21T11:17:27;21.08;;;14.45;;
42488;SDS011;28118;52.388;9.452;2022-11-21T11:20:02;16.40;;;13.10;;
42488;SDS011;28118;52.388;9.452;2022-11-21T11:22:31;24.50;;;14.35;;
42488;SDS011;28118;52.388;9.452;2022-11-21T11:24:58;12.57;;;11.18;;
42488;SDS011;28118;52.388;9.452;2022-11-21T11:27:28;14.27;;;12.32;;
42488;SDS011;28118;52.388;9.452;2022-11-21T11:29:55;19.40;;;13.13;;
42488;SDS011;28118;52.388;9.452;2022-11-21T11:32:21;14.57;;;12.57;;
42488;SDS011;28118;52.388;9.452;2022-11-21T11:34:58;25.90;;;14.30;;
42488;SDS011;28118;52.388;9.452;2022-11-21T11:37:29;16.45;;;14.68;;
42488;SDS011;28118;52.388;9.452;2022-11-21T11:49:17;12.05;;;9.25;;
42488;SDS011;28118;52.388;9.452;2022-11-21T11:51:56;15.10;;;12.68;;
42488;SDS011;28118;52.388;9.452;2022-11-21T11:54:34;17.30;;;14.73;;
42488;SDS011;28118;52.388;9.452;2022-11-21T11:57:12;14.00;;;12.50;;
42488;SDS011;28118;52.388;9.452;2022-11-21T11:59:40;14.10;;;12.73;;
42488;SDS011;28118;52.388;9.452;2022-11-21T12:05:14;13.65;;;12.20;;
42488;SDS011;28118;52.388;9.452;2022-11-21T12:08:05;13.48;;;11.65;;
42488;SDS011;28118;52.388;9.452;2022-11-21T12:11:54;13.60;;;10.63;;
42488;SDS011;28118;52.388;9.452;2022-11-21T12:14:32;14.55;;;11.20;;
42488;SDS011;28118;52.388;9.452;2022-11-21T12:17:24;13.35;;;11.98;;
42488;SDS011;28118;52.388;9.452;2022-11-21T12:19:57;13.43;;;9.48;;
42488;SDS011;28118;52.388;9.452;2022-11-21T12:22:27;16.80;;;10.43;;
42488;SDS011;28118;52.388;9.452;2022-11-21T12:24:54;14.40;;;9.93;;
42488;SDS011;28118;52.388;9.452;2022-11-21T12:35:38;14.25;;;10.52;;
42488;SDS011;28118;52.388;9.452;2022-11-21T12:41:06;16.40;;;11.32;;
42488;SDS011;28118;52.388;9.452;2022-11-21T12:47:00;13.50;;;9.85;;
42488;SDS011;28118;52.388;9.452;2022-11-21T12:50:02;10.10;;;9.10;;
42488;SDS011;28118;52.388;9.452;2022-11-21T12:53:06;13.70;;;10.73;;
42488;SDS011;28118;52.388;9.452;2022-11-21T12:56:31;11.93;;;10.27;;
42488;SDS011;28118;52.388;9.452;2022-11-21T12:59:11;12.38;;;9.35;;
42488;SDS011;28118;52.388;9.452;2022-11-21T13:04:25;12.73;;;10.23;;
42488;SDS011;28118;52.388;9.452;2022-11-21T13:06:55;12.73;;;9.45;;
42488;SDS011;28118;52.388;9.452;2022-11-21T13:09:23;12.00;;;9.27;;
42488;SDS011;28118;52.388;9.452;2022-11-21T13:11:57;11.68;;;10.57;;
42488;SDS011;28118;52.388;9.452;2022-11-21T13:17:06;12.25;;;9.38;;
42488;SDS011;28118;52.388;9.452;2022-11-21T13:30:50;11.85;;;10.40;;
42488;SDS011;28118;52.388;9.452;2022-11-21T13:36:09;11.70;;;10.10;;
42488;SDS011;28118;52.388;9.452;2022-11-21T13:46:58;11.65;;;8.45;;
42488;SDS011;28118;52.388;9.452;2022-11-21T13:49:33;12.18;;;9.70;;
42488;SDS011;28118;52.388;9.452;2022-11-21T14:06:18;14.77;;;11.90;;
42488;SDS011;28118;52.388;9.452;2022-11-21T14:09:15;14.82;;;10.73;;
42488;SDS011;28118;52.388;9.452;2022-11-21T14:11:49;13.20;;;10.07;;
42488;SDS011;28118;52.388;9.452;2022-11-21T14:19:32;13.05;;;9.85;;
42488;SDS011;28118;52.388;9.452;2022-11-21T14:21:59;14.20;;;12.77;;
42488;SDS011;28118;52.388;9.452;2022-11-21T14:24:26;14.55;;;12.07;;
42488;SDS011;28118;52.388;9.452;2022-11-21T14:26:53;12.55;;;10.27;;
42488;SDS011;28118;52.388;9.452;2022-11-21T14:29:39;12.63;;;10.65;;
42488;SDS011;28118;52.388;9.452;2022-11-21T14:32:12;12.63;;;11.30;;
42488;SDS011;28118;52.388;9.452;2022-11-21T14:34:40;14.30;;;11.93;;
42488;SDS011;28118;52.388;9.452;2022-11-21T14:37:06;12.20;;;10.35;;
42488;SDS011;28118;52.388;9.452;2022-11-21T14:39:33;11.40;;;10.25;;
42488;SDS011;28118;52.388;9.452;2022-11-21T14:42:10;14.95;;;13.02;;
42488;SDS011;28118;52.388;9.452;2022-11-21T14:44:42;11.65;;;10.40;;
42488;SDS011;28118;52.388;9.452;2022-11-21T14:47:16;13.35;;;9.90;;
42488;SDS011;28118;52.388;9.452;2022-11-21T14:49:52;10.60;;;9.48;;
42488;SDS011;28118;52.388;9.452;2022-11-21T14:52:22;12.38;;;10.88;;
42488;SDS011;28118;52.388;9.452;2022-11-21T14:54:52;12.25;;;9.23;;
42488;SDS011;28118;52.388;9.452;2022-11-21T14:57:41;12.65;;;9.55;;
42488;SDS011;28118;52.388;9.452;2022-11-21T15:00:11;12.32;;;9.65;;
42488;SDS011;28118;52.388;9.452;2022-11-21T15:03:00;11.43;;;10.32;;
42488;SDS011;28118;52.388;9.452;2022-11-21T15:05:29;12.07;;;9.43;;
42488;SDS011;28118;52.388;9.452;2022-11-21T15:08:22;11.65;;;9.52;;
42488;SDS011;28118;52.388;9.452;2022-11-21T15:11:09;10.68;;;9.68;;
42488;SDS011;28118;52.388;9.452;2022-11-21T15:13:36;17.55;;;11.43;;
42488;SDS011;28118;52.388;9.452;2022-11-21T15:16:23;11.95;;;9.95;;
42488;SDS011;28118;52.388;9.452;2022-11-21T15:18:51;11.73;;;9.25;;
42488;SDS011;28118;52.388;9.452;2022-11-21T15:21:17;10.82;;;9.23;;
42488;SDS011;28118;52.388;9.452;2022-11-21T15:23:44;12.77;;;9.68;;
42488;SDS011;28118;52.388;9.452;2022-11-21T15:29:19;9.88;;;7.22;;
42488;SDS011;28118;52.388;9.452;2022-11-21T15:32:05;12.00;;;8.75;;
42488;SDS011;28118;52.388;9.452;2022-11-21T15:34:34;11.50;;;10.10;;
42488;SDS011;28118;52.388;9.452;2022-11-21T15:37:03;9.23;;;8.35;;
42488;SDS011;28118;52.388;9.452;2022-11-21T15:39:33;12.85;;;9.68;;
42488;SDS011;28118;52.388;9.452;2022-11-21T15:45:03;11.10;;;9.60;;
42488;SDS011;28118;52.388;9.452;2022-11-21T15:47:50;12.20;;;8.90;;
42488;SDS011;28118;52.388;9.452;2022-11-21T15:50:17;9.60;;;8.68;;
42488;SDS011;28118;52.388;9.452;2022-11-21T15:52:47;13.32;;;10.55;;
42488;SDS011;28118;52.388;9.452;2022-11-21T15:55:22;12.93;;;9.63;;
42488;SDS011;28118;52.388;9.452;2022-11-21T15:57:51;10.95;;;9.32;;
42488;SDS011;28118;52.388;9.452;2022-11-21T16:00:17;13.73;;;8.13;;
42488;SDS011;28118;52.388;9.452;2022-11-21T16:02:44;13.52;;;9.32;;
42488;SDS011;28118;52.388;9.452;2022-11-21T16:05:12;9.95;;;8.95;;
42488;SDS011;28118;52.388;9.452;2022-11-21T16:07:40;9.73;;;7.85;;
42488;SDS011;28118;52.388;9.452;2022-11-21T16:10:07;10.52;;;9.52;;
42488;SDS011;28118;52.388;9.452;2022-11-21T16:12:44;9.20;;;8.25;;
42488;SDS011;28118;52.388;9.452;2022-11-21T16:15:12;11.70;;;9.80;;
42488;SDS011;28118;52.388;9.452;2022-11-21T16:17:39;10.82;;;9.82;;
42488;SDS011;28118;52.388;9.452;2022-11-21T16:20:06;10.93;;;9.85;;
42488;SDS011;28118;52.388;9.452;2022-11-21T16:22:33;13.20;;;11.20;;
42488;SDS011;28118;52.388;9.452;2022-11-21T16:25:00;10.40;;;9.18;;
42488;SDS011;28118;52.388;9.452;2022-11-21T16:27:26;9.73;;;8.60;;
42488;SDS011;28118;52.388;9.452;2022-11-21T16:29:53;14.75;;;10.80;;
42488;SDS011;28118;52.388;9.452;2022-11-21T16:32:20;14.07;;;11.93;;
42488;SDS011;28118;52.388;9.452;2022-11-21T16:34:46;11.65;;;10.45;;
42488;SDS011;28118;52.388;9.452;2022-11-21T16:37:13;12.98;;;11.52;;
42488;SDS011;28118;52.388;9.452;2022-11-21T16:39:39;16.00;;;13.85;;